Fay, OK (73646)

6:50 PM CDT on August 28, 2014 (GMT -0500)
Watonga | Change Station
CLOSE
Current Station
Airport
Location: Watonga,
Elevation: 1549 ft
Nearby Weather Stations

Elev 1549 ft 35.86 °N, 98.42 °W | Updated 15 minutes ago

Clear
Clear
82 °F
Feels Like 84 °F
N
8
Wind Variable Wind from South

Today
High -- | Low -- °F
--% Chance of Precip.
Yesterday
High -- | Low -- °F
Precip. -- in
7:03 AM 8:07 PM
Waxing Crescent, 10% visible
Pressure 29.90 in
Visibility 10.0 miles
Clouds Clear
Heat Index 84 °F
Dew Point 66 °F
Humidity 57%
Rainfall 0.00 in
Snow Depth Not available.
UV 1 out of 12
Pollen 10.20 out of 12
Air Quality Not available.
Flu Activity Not available.
METAR KJWG 282335Z AUTO 18007KT 10SM CLR 28/19 A2990 RMK AO2 LTG DSNT SW THRU N T02770186

More Conditions Fewer Conditions

Pressure 29.90 in
Visibility 10.0 miles
Clouds Clear
Heat Index 84 °F
Dew Point 66 °F
Humidity 57%
Rainfall 0.00 in
Snow Depth Not available.
UV 1 out of 12
Pollen 10.20 out of 12
Air Quality Not available.
Flu Activity Not available.
METAR KJWG 282335Z AUTO 18007KT 10SM CLR 28/19 A2990 RMK AO2 LTG DSNT SW THRU N T02770186

More Conditions Fewer Conditions

10-Day Weather Forecast

Almanac

Astronomy

Aug. 28, 2014 Rise Set
Actual Time 7:03 AM CDT 8:07 PM CDT
Civil Twilight 6:37 AM CDT 8:33 PM CDT
Nautical Twilight 6:05 AM CDT 9:05 PM CDT
Astronomical Twilight 5:33 AM CDT 9:37 PM CDT
Moon 9:50 AM CDT 9:40 PM CDT
Length of Visible Light 13h 56m
Length of Day
13h 04m
Tomorrow will be 2m 8s shorter.
Waxing Crescent, 10% of the Moon is Illuminated
Today
Waxing Crescent
Sep 2
First Quarter
Sep 8
Full
Sep 15
Last Quarter
Sep 24
New

Today's Extremes

State Highs State Lows

Community

WunderPhotos

Upload Photos

1,748,105 photos uploaded!

Nearby

Snow Depth

Station Depth Elevation
No new snow has been reported.

Earthquake Activity

City Distance Mag. Time & Date
Stillwater, Oklahoma 83 miles 3.1 10:44 AM CDT
2014-08-27
Anthony, Kansas 95 miles 2.8 10:11 AM CDT
2014-08-27
Guthrie, Oklahoma 69 miles 3.2 11:05 AM CDT
2014-08-26
Harrah, Oklahoma 87 miles 2.5 8:53 AM CDT
2014-08-26
Minimum magnitude displayed is 2.5.

Coastal Water Temperatures

Place Temperature
No Stations Reporting

Nearby Weather Stations